Time;durP1;ratioP1;P1;durP2;ratioP2;P2;SDS_P1;SDS_P2;PMS_P1;PMS_P2;Temp;Humidity;BMP_temperature;BMP_pressure;BME280_temperature;BME280_humidity;BME280_pressure;Samples;Min_cycle;Max_cycle;Signal;HPM_P1;HPM_P2
2021/01/11 00:02:17;;;;;;;3.25;1.60;;;16.20;64.70;;;;;;10495991;28;20111;-70
2021/01/11 00:07:17;;;;;;;2.55;1.70;;;16.20;64.70;;;;;;10496140;28;20031;-69
2021/01/11 00:12:19;;;;;;;2.53;1.48;;;16.10;64.60;;;;;;10495209;28;20033;-70
2021/01/11 00:17:20;;;;;;;2.20;1.55;;;16.10;64.60;;;;;;10494141;28;20024;-70
2021/01/11 00:22:20;;;;;;;2.67;1.55;;;16.00;64.80;;;;;;10495873;28;20039;-69
2021/01/11 00:27:21;;;;;;;3.45;1.80;;;16.00;64.70;;;;;;10511674;28;20036;-70
2021/01/11 00:32:22;;;;;;;3.67;1.83;;;16.00;64.80;;;;;;10495502;28;20107;-70
2021/01/11 00:37:23;;;;;;;2.53;1.60;;;16.00;64.80;;;;;;10495923;28;20473;-69
2021/01/11 00:42:23;;;;;;;2.97;1.60;;;16.00;64.80;;;;;;10494181;28;20048;-70
2021/01/11 00:47:24;;;;;;;3.05;1.77;;;15.90;64.80;;;;;;10494072;28;20463;-70
2021/01/11 00:52:25;;;;;;;2.78;1.80;;;15.90;64.80;;;;;;10494025;28;20021;-70
2021/01/11 00:57:25;;;;;;;2.35;1.60;;;15.90;64.80;;;;;;10495258;28;20103;-69
2021/01/11 01:02:27;;;;;;;2.20;1.42;;;15.90;64.80;;;;;;10494907;28;20163;-70
2021/01/11 01:07:27;;;;;;;2.10;1.38;;;15.90;64.70;;;;;;10493725;28;20089;-70
2021/01/11 01:12:28;;;;;;;2.25;1.30;;;15.80;64.70;;;;;;10494720;28;20583;-69
2021/01/11 01:17:29;;;;;;;2.25;1.60;;;15.80;64.70;;;;;;10494696;28;20032;-69
2021/01/11 01:22:29;;;;;;;2.58;1.42;;;15.80;64.70;;;;;;10494527;28;20103;-71
2021/01/11 01:27:30;;;;;;;3.08;1.95;;;15.80;64.70;;;;;;10494377;28;20032;-68
2021/01/11 01:32:31;;;;;;;2.25;1.33;;;15.80;64.60;;;;;;10499588;28;20108;-69
2021/01/11 01:37:31;;;;;;;3.33;1.90;;;15.70;64.60;;;;;;10501423;28;20103;-69
2021/01/11 01:42:32;;;;;;;4.07;1.63;;;15.70;64.60;;;;;;10500422;28;20035;-69
2021/01/11 01:47:34;;;;;;;3.10;1.67;;;15.70;64.70;;;;;;10500251;28;20035;-69
2021/01/11 01:52:38;;;;;;;3.03;2.10;;;15.70;64.60;;;;;;10500936;28;20024;-69
2021/01/11 01:57:41;;;;;;;3.88;2.25;;;15.70;64.50;;;;;;10499676;28;20101;-70
2021/01/11 02:02:41;;;;;;;3.15;2.17;;;15.60;64.60;;;;;;10499209;28;20028;-70
2021/01/11 02:08:28;;;;;;;2.53;1.70;;;15.60;64.60;;;;;;10500019;28;20115;-69
2021/01/11 02:13:57;;;;;;;3.00;1.73;;;15.60;64.60;;;;;;10496175;28;20153;-70
2021/01/11 02:19:16;;;;;;;2.92;2.03;;;15.60;64.50;;;;;;10499953;28;20059;-69
2021/01/11 02:24:47;;;;;;;3.27;2.10;;;15.60;64.50;;;;;;10515632;28;20035;-68
2021/01/11 02:30:06;;;;;;;2.63;1.70;;;15.50;64.50;;;;;;10498971;28;20489;-69
2021/01/11 02:35:10;;;;;;;3.25;1.95;;;15.50;64.60;;;;;;10499297;28;20052;-69
2021/01/11 02:40:11;;;;;;;4.03;2.47;;;15.50;64.60;;;;;;10505074;28;20169;-69
2021/01/11 02:45:12;;;;;;;3.80;2.38;;;15.50;64.70;;;;;;10498534;28;20124;-68
2021/01/11 02:50:23;;;;;;;3.50;2.13;;;15.50;64.50;;;;;;10498691;28;20025;-68
2021/01/11 02:55:48;;;;;;;4.22;2.35;;;15.50;64.40;;;;;;10497246;28;20028;-68
2021/01/11 03:00:50;;;;;;;4.97;2.22;;;15.50;64.60;;;;;;10492842;28;20020;-69
2021/01/11 03:05:53;;;;;;;3.78;2.63;;;15.40;64.40;;;;;;10493725;28;20560;-68
2021/01/11 03:10:53;;;;;;;4.95;2.92;;;15.40;64.30;;;;;;10513046;28;20078;-69
2021/01/11 03:15:54;;;;;;;5.38;3.45;;;15.40;64.30;;;;;;10513051;28;20021;-68
2021/01/11 03:20:55;;;;;;;4.40;2.60;;;15.40;65.00;;;;;;10497516;28;20016;-70
2021/01/11 03:25:56;;;;;;;3.70;2.72;;;15.40;64.40;;;;;;10512907;28;20020;-70
2021/01/11 03:30:56;;;;;;;4.88;3.00;;;15.40;64.30;;;;;;10496947;28;20107;-69
2021/01/11 03:36:00;;;;;;;4.90;3.40;;;15.30;64.20;;;;;;10500493;28;20110;-69
2021/01/11 03:41:04;;;;;;;4.22;2.72;;;15.30;64.10;;;;;;10495333;28;20032;-70
2021/01/11 03:46:06;;;;;;;3.47;2.53;;;15.30;64.20;;;;;;10495192;28;20165;-70
2021/01/11 03:51:08;;;;;;;3.70;2.55;;;15.30;64.30;;;;;;10495187;28;20033;-70
2021/01/11 03:56:08;;;;;;;4.30;3.03;;;15.30;64.30;;;;;;10479643;28;20073;-69
2021/01/11 04:01:09;;;;;;;5.57;3.70;;;15.30;64.20;;;;;;10483625;28;20021;-69
2021/01/11 04:06:10;;;;;;;4.88;3.17;;;15.20;64.20;;;;;;10495860;28;20135;-69
2021/01/11 04:11:12;;;;;;;5.18;3.40;;;15.20;64.30;;;;;;10511661;28;20048;-69
2021/01/11 04:16:16;;;;;;;5.82;3.08;;;15.20;64.20;;;;;;10495894;28;20103;-70
2021/01/11 04:21:16;;;;;;;4.22;3.35;;;15.20;64.20;;;;;;10496126;28;20024;-70
2021/01/11 04:26:17;;;;;;;4.93;3.45;;;15.20;64.20;;;;;;10495528;28;20037;-70
2021/01/11 04:31:18;;;;;;;6.43;4.18;;;15.20;64.80;;;;;;10495437;28;20028;-69
2021/01/11 04:36:19;;;;;;;5.85;3.60;;;15.20;64.10;;;;;;10497251;28;20035;-70
2021/01/11 04:41:21;;;;;;;5.03;3.45;;;15.20;64.20;;;;;;10492138;28;20043;-70
2021/01/11 04:46:21;;;;;;;5.50;3.88;;;15.10;64.10;;;;;;10494105;28;20032;-69
2021/01/11 04:51:22;;;;;;;7.03;4.00;;;15.10;64.10;;;;;;10495132;28;20025;-69
2021/01/11 04:56:25;;;;;;;5.30;3.72;;;15.10;64.10;;;;;;10505077;28;20135;-69
2021/01/11 05:01:28;;;;;;;5.03;3.47;;;15.10;64.10;;;;;;10493610;28;20025;-70
2021/01/11 05:06:29;;;;;;;5.07;4.07;;;15.00;64.10;;;;;;10498164;28;20064;-69
2021/01/11 05:11:30;;;;;;;5.03;3.40;;;15.00;64.10;;;;;;10501122;28;20048;-69
2021/01/11 05:16:31;;;;;;;5.38;3.63;;;15.10;64.20;;;;;;10502468;28;20443;-69
2021/01/11 05:21:44;;;;;;;4.70;3.45;;;15.00;64.10;;;;;;10498512;28;20059;-70
2021/01/11 05:26:45;;;;;;;7.28;4.60;;;15.00;64.10;;;;;;10499218;28;20469;-69
2021/01/11 05:31:57;;;;;;;7.18;4.22;;;15.00;64.10;;;;;;10500777;28;20082;-71
2021/01/11 05:36:58;;;;;;;5.35;3.55;;;15.00;64.10;;;;;;10490120;28;20028;-69
2021/01/11 05:41:58;;;;;;;6.00;3.92;;;15.00;64.10;;;;;;10500310;28;20034;-71
2021/01/11 05:47:01;;;;;;;6.05;4.18;;;15.00;64.00;;;;;;10498166;28;20163;-71
2021/01/11 05:52:13;;;;;;;6.35;3.67;;;15.00;64.00;;;;;;10516663;28;20060;-71
2021/01/11 05:57:21;;;;;;;5.00;3.63;;;15.20;63.90;;;;;;10500814;28;20443;-70
2021/01/11 06:02:23;;;;;;;5.47;3.72;;;15.30;63.50;;;;;;10499935;28;20040;-71
2021/01/11 06:07:24;;;;;;;4.93;3.55;;;15.50;63.30;;;;;;10499562;28;20028;-71
2021/01/11 06:12:25;;;;;;;5.47;3.45;;;15.60;62.90;;;;;;10498836;28;20032;-70
2021/01/11 06:17:26;;;;;;;5.78;3.65;;;15.70;62.70;;;;;;10502859;28;20330;-70
2021/01/11 06:22:45;;;;;;;6.05;3.67;;;15.90;62.50;;;;;;10512535;28;20373;-71
2021/01/11 06:28:09;;;;;;;4.93;3.38;;;16.00;62.10;;;;;;10495810;28;20020;-71
2021/01/11 06:33:13;;;;;;;7.05;3.40;;;16.10;61.90;;;;;;10495052;28;20021;-67
2021/01/11 06:38:30;;;;;;;6.95;3.10;;;16.10;63.00;;;;;;10470341;28;20021;-70
2021/01/11 06:43:39;;;;;;;8.35;3.55;;;16.30;63.10;;;;;;10466202;28;20031;-73
2021/01/11 06:48:40;;;;;;;;;;;16.30;63.70;;;;;;10488003;28;20048;-70
2021/01/11 06:53:41;;;;;;;9.07;4.00;;;16.40;64.30;;;;;;10493863;28;19921;-66
2021/01/11 06:58:42;;;;;;;7.43;4.32;;;16.60;63.60;;;;;;10494969;28;20158;-65
2021/01/11 07:03:48;;;;;;;13.45;3.90;;;16.70;63.00;;;;;;10475957;28;20021;-63
2021/01/11 07:08:49;;;;;;;11.82;4.30;;;16.80;63.00;;;;;;10481475;28;20041;-66
2021/01/11 07:13:50;;;;;;;12.18;3.88;;;16.80;63.60;;;;;;10478579;28;20162;-65
2021/01/11 07:18:53;;;;;;;13.77;4.15;;;17.00;63.20;;;;;;10484729;28;20086;-69
2021/01/11 07:23:55;;;;;;;12.85;4.18;;;17.10;63.30;;;;;;10506681;28;20021;-59
2021/01/11 07:29:01;;;;;;;9.95;4.47;;;17.10;62.70;;;;;;10495685;28;20028;-59
2021/01/11 07:34:13;;;;;;;10.55;4.93;;;17.20;63.40;;;;;;10468416;28;20079;-62
2021/01/11 07:39:28;;;;;;;7.80;3.67;;;17.20;62.70;;;;;;10464632;28;20492;-63
2021/01/11 07:44:31;;;;;;;9.00;3.75;;;17.30;62.30;;;;;;10480856;28;20094;-61
2021/01/11 07:49:38;;;;;;;14.85;4.50;;;17.40;62.20;;;;;;10487335;28;20078;-63
2021/01/11 07:54:40;;;;;;;12.70;4.70;;;17.40;62.30;;;;;;10468079;28;20043;-62
2021/01/11 07:59:43;;;;;;;15.25;4.85;;;17.50;62.50;;;;;;10473021;28;20032;-60
2021/01/11 08:04:43;;;;;;;9.52;4.53;;;17.50;62.60;;;;;;10491694;28;20464;-63
2021/01/11 08:09:44;;;;;;;15.82;5.18;;;17.60;62.70;;;;;;10476993;28;20128;-69
2021/01/11 08:14:47;;;;;;;14.50;4.28;;;17.70;62.50;;;;;;10480193;28;20025;-70
2021/01/11 08:19:52;;;;;;;13.13;4.57;;;17.70;62.50;;;;;;10487223;28;20490;-68
2021/01/11 08:24:56;;;;;;;12.98;4.72;;;17.70;63.00;;;;;;10498635;28;20508;-70
2021/01/11 08:30:11;;;;;;;15.18;3.38;;;17.70;63.00;;;;;;10473713;28;20041;-70
2021/01/11 08:35:19;;;;;;;11.80;4.20;;;17.80;63.10;;;;;;10473121;28;20495;-72
2021/01/11 08:40:34;;;;;;;15.38;3.97;;;17.80;63.20;;;;;;10487922;28;20119;-64
2021/01/11 08:45:42;;;;;;;15.32;4.40;;;17.80;63.00;;;;;;10489181;28;20024;-65
2021/01/11 08:50:57;;;;;;;14.73;4.57;;;17.90;63.40;;;;;;10499353;28;20123;-63
2021/01/11 08:56:03;;;;;;;10.07;4.28;;;17.80;64.00;;;;;;10503207;28;20028;-62
2021/01/11 09:01:15;;;;;;;9.25;4.47;;;17.80;63.00;;;;;;10495757;28;20063;-65
2021/01/11 09:06:38;;;;;;;9.18;4.63;;;17.80;63.00;;;;;;10470448;28;20029;-64
2021/01/11 09:11:41;;;;;;;13.80;4.20;;;17.90;62.90;;;;;;10470985;28;20600;-64
2021/01/11 09:16:44;;;;;;;11.52;4.53;;;17.90;63.10;;;;;;10463010;28;20033;-62
2021/01/11 09:22:17;;;;;;;8.48;4.63;;;17.80;63.30;;;;;;10492214;28;20082;-66
2021/01/11 09:27:17;;;;;;;13.20;4.68;;;17.80;63.20;;;;;;10487133;28;20127;-68
2021/01/11 09:32:21;;;;;;;12.88;4.68;;;17.70;63.50;;;;;;10491106;28;20112;-68
2021/01/11 09:37:22;;;;;;;14.30;4.70;;;17.80;63.30;;;;;;10486525;28;20032;-67
2021/01/11 09:42:23;;;;;;;10.55;3.63;;;17.80;63.50;;;;;;10492047;28;20036;-67
2021/01/11 09:47:24;;;;;;;13.35;4.88;;;17.70;64.40;;;;;;10483838;28;20039;-67
2021/01/11 09:57:52;;;;;;;11.85;3.58;;;17.70;63.50;;;;;;10416166;28;20502;-65
2021/01/11 10:02:53;;;;;;;11.48;4.45;;;17.70;63.50;;;;;;10415575;28;20112;-65
2021/01/11 10:07:54;;;;;;;13.88;4.97;;;17.80;63.70;;;;;;10416494;28;20036;-69
2021/01/11 10:12:55;;;;;;;23.00;4.63;;;17.80;64.00;;;;;;10416086;28;20096;-65
2021/01/11 10:17:56;;;;;;;10.68;4.07;;;17.80;63.80;;;;;;10416551;28;20037;-67
2021/01/11 10:22:57;;;;;;;15.93;4.32;;;17.80;63.80;;;;;;10414485;28;20033;-67
2021/01/11 10:27:57;;;;;;;14.00;4.85;;;17.80;64.10;;;;;;10415995;28;20466;-65
2021/01/11 10:32:58;;;;;;;8.82;3.97;;;17.70;64.20;;;;;;10415649;28;20021;-67
2021/01/11 10:37:59;;;;;;;12.35;3.80;;;17.70;64.90;;;;;;10416630;28;20087;-65
2021/01/11 10:43:00;;;;;;;14.48;4.95;;;17.80;66.60;;;;;;10414463;28;20156;-68
2021/01/11 10:48:01;;;;;;;9.65;3.40;;;17.80;66.20;;;;;;10415976;28;20017;-69
2021/01/11 10:53:01;;;;;;;12.75;3.33;;;17.90;66.30;;;;;;10415320;28;20444;-65
2021/01/11 10:58:02;;;;;;;12.13;3.78;;;17.80;66.40;;;;;;10415395;28;20025;-64
2021/01/11 11:03:07;;;;;;;6.13;3.28;;;17.80;66.50;;;;;;10414697;28;20044;-63
2021/01/11 11:08:08;;;;;;;9.93;3.55;;;17.80;66.50;;;;;;10417802;28;20470;-66
2021/01/11 11:13:09;;;;;;;8.50;3.70;;;17.70;66.40;;;;;;10412266;28;20092;-67
2021/01/11 11:18:11;;;;;;;10.13;3.83;;;17.70;66.70;;;;;;10407776;28;20029;-66
2021/01/11 11:23:12;;;;;;;10.35;3.58;;;17.70;67.10;;;;;;10413957;28;20052;-66
2021/01/11 11:28:13;;;;;;;8.73;3.28;;;17.70;67.40;;;;;;10417833;28;20052;-60
2021/01/11 11:33:14;;;;;;;11.15;3.72;;;17.80;68.00;;;;;;10412014;28;20390;-59
2021/01/11 11:38:15;;;;;;;10.90;3.20;;;17.80;67.90;;;;;;10411005;28;20032;-58
2021/01/11 11:43:15;;;;;;;9.80;3.45;;;17.70;67.90;;;;;;10413161;28;20025;-61
2021/01/11 11:48:16;;;;;;;13.98;3.40;;;17.70;67.70;;;;;;10412805;28;20078;-63
2021/01/11 11:53:18;;;;;;;20.80;4.32;;;17.80;68.20;;;;;;10413038;28;20113;-58
2021/01/11 11:58:19;;;;;;;13.38;3.30;;;17.80;68.50;;;;;;10414037;28;20105;-59
2021/01/11 12:03:19;;;;;;;10.52;3.70;;;17.80;69.10;;;;;;10412089;28;20411;-59
2021/01/11 12:08:20;;;;;;;8.15;3.30;;;17.80;69.60;;;;;;10412146;28;20539;-58
2021/01/11 12:13:21;;;;;;;13.93;2.85;;;17.80;69.60;;;;;;10406838;28;20559;-59
2021/01/11 12:18:22;;;;;;;6.30;2.90;;;17.80;69.90;;;;;;10412238;28;20043;-58
2021/01/11 12:23:24;;;;;;;11.10;2.78;;;17.90;69.00;;;;;;10410591;28;20076;-60
2021/01/11 12:28:24;;;;;;;11.30;3.72;;;17.90;68.70;;;;;;10407069;28;20034;-61
2021/01/11 12:33:25;;;;;;;12.70;3.30;;;17.90;68.50;;;;;;10410770;28;20034;-60
2021/01/11 12:38:26;;;;;;;6.45;2.50;;;17.80;68.30;;;;;;10408201;28;20053;-60
2021/01/11 12:43:28;;;;;;;9.07;3.22;;;17.80;68.10;;;;;;10393730;28;20116;-61
2021/01/11 12:48:28;;;;;;;12.45;3.47;;;17.80;68.00;;;;;;10412841;28;20014;-60
2021/01/11 12:53:29;;;;;;;13.57;3.28;;;17.80;68.00;;;;;;10411107;28;20038;-60
2021/01/11 12:58:30;;;;;;;8.95;2.88;;;17.80;68.10;;;;;;10412377;28;20049;-60
2021/01/11 13:03:30;;;;;;;9.27;3.13;;;17.70;68.10;;;;;;10412252;28;20093;-60
2021/01/11 13:08:31;;;;;;;9.38;3.33;;;17.70;68.20;;;;;;10411299;28;20370;-60
2021/01/11 13:13:32;;;;;;;19.27;3.42;;;17.70;68.00;;;;;;10409372;28;20071;-61
2021/01/11 13:18:32;;;;;;;11.80;3.28;;;17.70;68.00;;;;;;10409676;28;20053;-60
2021/01/11 13:23:33;;;;;;;12.13;3.08;;;17.70;67.80;;;;;;10406666;28;20037;-60
2021/01/11 13:28:34;;;;;;;19.70;4.25;;;17.70;67.90;;;;;;10410127;28;20116;-61
2021/01/11 13:33:34;;;;;;;18.00;4.18;;;17.70;68.30;;;;;;10411673;28;20344;-63
2021/01/11 13:38:35;;;;;;;13.38;3.17;;;17.70;68.40;;;;;;10418274;28;20090;-63
2021/01/11 13:43:36;;;;;;;10.73;3.40;;;17.70;69.00;;;;;;10412623;28;20429;-63
2021/01/11 13:48:37;;;;;;;14.82;3.55;;;17.70;69.30;;;;;;10416878;28;20112;-61
2021/01/11 13:53:37;;;;;;;7.97;3.00;;;17.70;69.40;;;;;;10433561;28;20405;-61
2021/01/11 13:58:38;;;;;;;12.02;3.00;;;17.80;69.80;;;;;;10418223;28;20036;-61
2021/01/11 14:03:39;;;;;;;9.80;3.20;;;17.70;69.80;;;;;;10418732;28;20061;-63
2021/01/11 14:08:40;;;;;;;7.40;2.72;;;17.70;69.90;;;;;;10418022;28;20032;-60
2021/01/11 14:13:41;;;;;;;10.20;2.75;;;17.80;69.70;;;;;;10418295;28;20157;-59
2021/01/11 14:18:41;;;;;;;10.43;3.10;;;17.70;68.70;;;;;;10416921;28;20087;-60
2021/01/11 14:23:43;;;;;;;11.90;3.20;;;17.70;68.60;;;;;;10416751;28;20048;-60
2021/01/11 14:28:44;;;;;;;12.35;3.78;;;17.70;68.10;;;;;;10405467;28;20120;-60
2021/01/11 14:33:45;;;;;;;15.35;3.92;;;17.70;68.80;;;;;;10380973;28;20108;-61
2021/01/11 14:38:46;;;;;;;8.25;2.60;;;17.70;68.00;;;;;;10406116;28;20164;-61
2021/01/11 14:43:46;;;;;;;10.88;4.03;;;17.80;68.10;;;;;;10409503;28;20033;-61
2021/01/11 14:48:47;;;;;;;7.95;2.60;;;17.80;68.20;;;;;;10412438;28;20338;-61
2021/01/11 14:53:48;;;;;;;9.30;3.00;;;17.80;68.20;;;;;;10410145;28;20052;-62
2021/01/11 14:58:50;;;;;;;11.57;2.60;;;17.80;68.30;;;;;;10395974;28;20029;-63
2021/01/11 15:03:51;;;;;;;6.55;2.90;;;17.70;67.70;;;;;;10415836;28;20026;-62
2021/01/11 15:08:53;;;;;;;10.55;3.78;;;17.70;67.50;;;;;;10414997;28;20037;-62
2021/01/11 15:13:54;;;;;;;11.27;3.25;;;17.70;67.20;;;;;;10414218;28;20385;-63
2021/01/11 15:18:55;;;;;;;8.23;2.53;;;17.70;67.00;;;;;;10415212;28;20116;-62
2021/01/11 15:23:55;;;;;;;9.02;3.55;;;17.70;66.90;;;;;;10422397;28;20025;-61
2021/01/11 15:28:56;;;;;;;9.25;3.22;;;17.70;66.90;;;;;;10429709;28;20079;-62
2021/01/11 15:33:57;;;;;;;7.38;2.72;;;17.70;66.80;;;;;;10415044;28;20378;-62
2021/01/11 15:39:01;;;;;;;6.03;2.42;;;17.70;66.70;;;;;;10411870;28;20124;-62
2021/01/11 15:44:01;;;;;;;7.95;2.35;;;17.70;66.50;;;;;;10406055;28;20164;-61
2021/01/11 15:49:02;;;;;;;6.25;2.63;;;17.80;66.40;;;;;;10413608;28;20112;-60
2021/01/11 15:54:03;;;;;;;13.88;3.08;;;17.70;65.90;;;;;;10403030;28;20041;-60
2021/01/11 15:59:04;;;;;;;5.05;2.60;;;17.80;66.30;;;;;;10401077;28;20037;-61
2021/01/11 16:04:05;;;;;;;6.35;2.45;;;17.80;66.30;;;;;;10412184;28;20078;-59
2021/01/11 16:09:05;;;;;;;9.88;2.83;;;17.90;66.30;;;;;;10413569;28;20446;-61
2021/01/11 16:14:08;;;;;;;10.00;2.83;;;17.80;66.50;;;;;;10411466;28;20050;-62
2021/01/11 16:19:10;;;;;;;6.93;2.33;;;17.70;67.00;;;;;;10428792;28;20462;-59
2021/01/11 16:24:11;;;;;;;5.35;2.38;;;17.70;67.20;;;;;;10428993;28;20049;-59
2021/01/11 16:29:11;;;;;;;10.60;2.95;;;17.70;67.30;;;;;;10412677;28;20061;-62
2021/01/11 16:34:12;;;;;;;13.82;2.75;;;17.70;67.80;;;;;;10403116;28;20473;-62
2021/01/11 16:39:13;;;;;;;13.00;3.67;;;17.80;68.10;;;;;;10413314;28;20108;-61
2021/01/11 16:44:14;;;;;;;17.35;4.10;;;17.80;68.00;;;;;;10413251;28;20116;-58
2021/01/11 16:49:14;;;;;;;8.35;4.38;;;17.80;67.70;;;;;;10413322;28;20108;-60
2021/01/11 16:54:16;;;;;;;9.30;4.20;;;17.80;66.90;;;;;;10399975;28;20516;-61
2021/01/11 16:59:16;;;;;;;11.30;4.03;;;17.80;66.10;;;;;;10412653;28;20076;-60
2021/01/11 17:04:17;;;;;;;7.63;4.18;;;17.80;65.30;;;;;;10421058;28;20108;-58
2021/01/11 17:09:18;;;;;;;13.48;4.80;;;17.90;64.90;;;;;;10420521;28;20152;-59
2021/01/11 17:14:19;;;;;;;8.95;4.47;;;18.00;65.80;;;;;;10421118;28;20082;-59
2021/01/11 17:19:20;;;;;;;9.68;4.07;;;18.20;66.20;;;;;;10420858;28;20065;-58
2021/01/11 17:24:20;;;;;;;7.13;3.35;;;18.30;65.90;;;;;;10418110;28;20057;-58
2021/01/11 17:29:21;;;;;;;12.13;3.83;;;18.40;66.00;;;;;;10427641;28;20056;-57
2021/01/11 17:34:23;;;;;;;9.93;4.28;;;18.40;65.80;;;;;;10419382;28;20533;-58
2021/01/11 17:39:24;;;;;;;15.10;4.20;;;18.40;65.30;;;;;;10418595;28;20513;-58
2021/01/11 17:44:25;;;;;;;7.78;2.70;;;18.60;65.80;;;;;;10419031;28;20034;-58
2021/01/11 17:49:25;;;;;;;11.30;3.08;;;18.70;64.40;;;;;;10419309;28;20041;-59
2021/01/11 17:54:26;;;;;;;9.45;3.22;;;18.70;64.40;;;;;;10401252;28;20042;-59
2021/01/11 17:59:27;;;;;;;9.63;3.38;;;18.70;64.20;;;;;;10415216;28;20435;-60
2021/01/11 18:04:27;;;;;;;10.38;3.00;;;18.80;64.20;;;;;;10417638;28;20502;-60
2021/01/11 18:09:28;;;;;;;6.35;2.53;;;18.80;64.20;;;;;;10417447;28;20064;-60
2021/01/11 18:14:30;;;;;;;7.80;3.13;;;18.80;64.10;;;;;;10416929;28;20049;-58
2021/01/11 18:19:31;;;;;;;6.82;2.80;;;18.80;64.10;;;;;;10390302;28;20018;-59
2021/01/11 18:24:32;;;;;;;6.85;2.47;;;18.80;63.90;;;;;;10391948;28;20113;-59
2021/01/11 18:29:32;;;;;;;10.82;3.47;;;18.80;63.90;;;;;;10417810;28;20112;-59
2021/01/11 18:34:33;;;;;;;8.00;2.47;;;18.80;63.70;;;;;;10395638;28;20025;-59
2021/01/11 18:39:34;;;;;;;11.02;2.80;;;18.80;63.70;;;;;;10399415;28;20026;-61
2021/01/11 18:44:34;;;;;;;6.45;2.90;;;18.70;63.80;;;;;;10416213;28;20111;-61
2021/01/11 18:49:35;;;;;;;7.60;2.33;;;18.70;64.30;;;;;;10402309;28;20108;-61
2021/01/11 18:54:36;;;;;;;5.60;2.58;;;18.70;64.30;;;;;;10397515;28;20100;-61
2021/01/11 18:59:37;;;;;;;7.68;2.47;;;18.70;64.10;;;;;;10407850;28;20236;-62
2021/01/11 19:04:38;;;;;;;6.60;2.53;;;18.70;64.10;;;;;;10415575;28;20025;-62
2021/01/11 19:09:40;;;;;;;6.43;2.75;;;18.70;64.00;;;;;;10414912;28;20026;-62
2021/01/11 19:14:41;;;;;;;4.47;2.33;;;18.70;63.90;;;;;;10413752;28;20018;-63
2021/01/11 19:19:42;;;;;;;4.68;2.30;;;18.70;64.00;;;;;;10414862;28;20029;-62
2021/01/11 19:24:43;;;;;;;5.03;2.80;;;18.70;64.00;;;;;;10413983;28;20044;-61
2021/01/11 19:29:44;;;;;;;8.63;2.05;;;18.70;64.00;;;;;;10401155;28;20046;-62
2021/01/11 19:34:45;;;;;;;6.80;1.85;;;18.70;64.10;;;;;;10406143;28;20120;-62
2021/01/11 19:39:46;;;;;;;4.22;1.95;;;18.70;64.00;;;;;;10399187;28;20044;-62
2021/01/11 19:44:46;;;;;;;5.50;2.30;;;18.70;64.10;;;;;;10349270;28;20034;-64
2021/01/11 19:49:47;;;;;;;4.18;2.10;;;18.60;64.10;;;;;;10377598;28;20030;-62
2021/01/11 19:54:48;;;;;;;3.33;2.15;;;18.60;64.10;;;;;;10379795;28;20084;-61
2021/01/11 19:59:48;;;;;;;3.53;1.73;;;18.70;64.10;;;;;;10409833;28;20064;-62
2021/01/11 20:04:49;;;;;;;4.30;2.53;;;18.70;64.10;;;;;;10412775;28;20459;-62
2021/01/11 20:09:50;;;;;;;3.70;2.33;;;18.60;64.10;;;;;;10411940;28;20029;-62
2021/01/11 20:14:52;;;;;;;3.72;2.05;;;18.50;64.20;;;;;;10412292;28;20096;-62
2021/01/11 20:19:53;;;;;;;5.70;1.73;;;18.50;64.60;;;;;;10412129;28;20029;-63
2021/01/11 20:24:54;;;;;;;3.45;2.13;;;18.40;64.70;;;;;;10404107;28;20494;-63
2021/01/11 20:29:55;;;;;;;3.38;1.98;;;18.30;65.00;;;;;;10412601;28;20044;-62
2021/01/11 20:34:56;;;;;;;3.60;1.88;;;18.20;65.20;;;;;;10414295;28;20036;-62
2021/01/11 20:39:56;;;;;;;4.85;2.10;;;18.10;65.40;;;;;;10421642;28;20507;-63
2021/01/11 20:44:57;;;;;;;3.67;2.13;;;18.00;65.40;;;;;;10432650;28;20371;-63
2021/01/11 20:49:58;;;;;;;3.53;1.88;;;17.90;65.70;;;;;;10417880;28;20473;-63
2021/01/11 20:54:58;;;;;;;6.07;2.13;;;17.80;65.90;;;;;;10417883;28;20079;-63
2021/01/11 21:00:00;;;;;;;7.57;1.95;;;17.70;66.00;;;;;;10418358;28;20057;-62
2021/01/11 21:05:01;;;;;;;4.50;2.25;;;17.60;66.20;;;;;;10418138;28;20043;-62
2021/01/11 21:10:03;;;;;;;4.68;1.73;;;17.60;66.40;;;;;;10417705;28;20378;-63
2021/01/11 21:15:05;;;;;;;2.95;2.00;;;17.50;66.40;;;;;;10417938;28;20107;-62
2021/01/11 21:20:07;;;;;;;5.60;1.98;;;17.40;66.40;;;;;;10420244;28;20021;-62
2021/01/11 21:25:09;;;;;;;5.55;1.98;;;17.40;67.10;;;;;;10419978;28;20040;-63
2021/01/11 21:30:12;;;;;;;5.05;2.00;;;17.30;66.60;;;;;;10418511;28;20026;-62
2021/01/11 21:35:13;;;;;;;3.28;1.67;;;17.20;66.60;;;;;;10414918;28;20390;-62
2021/01/11 21:40:13;;;;;;;3.55;2.28;;;17.20;66.70;;;;;;10419795;28;20029;-63
2021/01/11 21:45:14;;;;;;;2.05;1.60;;;17.20;66.60;;;;;;10417704;28;20492;-63
2021/01/11 21:50:15;;;;;;;2.33;1.40;;;17.10;66.70;;;;;;10418133;28;20025;-63
2021/01/11 21:55:15;;;;;;;2.75;1.50;;;17.00;66.70;;;;;;10416953;28;20679;-62
2021/01/11 22:00:18;;;;;;;3.85;1.65;;;17.00;66.70;;;;;;10418882;28;20034;-62
2021/01/11 22:05:18;;;;;;;4.75;1.98;;;17.00;66.80;;;;;;10417470;28;20128;-62
2021/01/11 22:10:19;;;;;;;2.80;1.70;;;17.00;66.90;;;;;;10418330;28;20213;-62
2021/01/11 22:15:20;;;;;;;3.35;1.90;;;16.90;66.90;;;;;;10418197;28;20105;-62
2021/01/11 22:20:21;;;;;;;2.40;1.60;;;16.90;67.00;;;;;;10417956;28;20033;-62
2021/01/11 22:25:22;;;;;;;2.20;1.50;;;16.80;67.00;;;;;;10417631;28;20037;-62
2021/01/11 22:30:23;;;;;;;2.38;1.33;;;16.80;67.10;;;;;;10417625;28;20060;-61
2021/01/11 22:35:23;;;;;;;3.22;1.77;;;16.80;67.10;;;;;;10416174;28;20854;-62
2021/01/11 22:40:24;;;;;;;2.28;1.38;;;16.70;67.10;;;;;;10415948;28;20037;-62
2021/01/11 22:45:25;;;;;;;2.92;1.88;;;16.70;67.20;;;;;;10417198;28;20033;-62
2021/01/11 22:50:26;;;;;;;2.45;1.50;;;16.70;67.20;;;;;;10432134;28;20075;-61
2021/01/11 22:55:45;;;;;;;2.30;1.52;;;16.70;67.20;;;;;;10416518;28;20083;-62
2021/01/11 23:00:47;;;;;;;5.43;2.03;;;16.60;67.10;;;;;;10416148;28;20029;-62
2021/01/11 23:05:48;;;;;;;2.58;1.40;;;16.60;67.10;;;;;;10414963;28;20029;-62
2021/01/11 23:10:49;;;;;;;2.35;1.58;;;16.60;67.00;;;;;;10415849;28;20045;-62
2021/01/11 23:15:49;;;;;;;2.60;1.77;;;16.60;67.00;;;;;;10415713;28;20022;-62
2021/01/11 23:20:51;;;;;;;2.35;1.50;;;16.60;67.00;;;;;;10415762;28;20025;-62
2021/01/11 23:25:52;;;;;;;2.28;1.77;;;16.60;67.00;;;;;;10430644;28;20077;-62
2021/01/11 23:31:03;;;;;;;3.47;1.70;;;16.60;67.00;;;;;;10415050;28;20402;-62
2021/01/11 23:36:05;;;;;;;1.90;1.48;;;16.60;66.70;;;;;;10415066;28;20025;-62
2021/01/11 23:41:06;;;;;;;1.80;1.23;;;16.70;66.70;;;;;;10413633;28;20064;-62
2021/01/11 23:46:06;;;;;;;2.53;1.50;;;16.70;66.60;;;;;;10414733;28;20064;-62
2021/01/11 23:51:07;;;;;;;2.70;1.40;;;16.70;66.50;;;;;;10414613;28;20029;-62
2021/01/11 23:56:08;;;;;;;2.17;1.40;;;16.70;66.60;;;;;;10414106;28;20076;-63
